Time;durP1;ratioP1;P1;durP2;ratioP2;P2;SDS_P1;SDS_P2;PMS_P1;PMS_P2;Temp;Humidity;BMP_temperature;BMP_pressure;BME280_temperature;BME280_humidity;BME280_pressure;Samples;Min_cycle;Max_cycle;Signal;HPM_P1;HPM_P2
2022/11/03 00:02:08;;;;;;;0.00;0.00;;;16.50;89.20;;;;;;4013454;29;20061;-63
2022/11/03 00:04:49;;;;;;;0.00;0.00;;;16.50;89.10;;;;;;4014511;29;20190;-63
2022/11/03 00:07:31;;;;;;;0.10;0.10;;;16.50;89.30;;;;;;4018395;29;20056;-63
2022/11/03 00:10:12;;;;;;;2.45;0.60;;;16.40;89.20;;;;;;4018269;29;20421;-63
2022/11/03 00:12:54;;;;;;;0.05;0.05;;;16.40;89.40;;;;;;3992093;29;20498;-63
2022/11/03 00:15:34;;;;;;;0.00;0.00;;;16.40;89.50;;;;;;4014409;29;20055;-63
2022/11/03 00:18:15;;;;;;;0.00;0.00;;;16.40;89.60;;;;;;4021431;29;20060;-63
2022/11/03 00:20:59;;;;;;;0.00;0.00;;;16.30;90.20;;;;;;4032595;29;20322;-63
2022/11/03 00:23:43;;;;;;;0.00;0.00;;;16.30;89.70;;;;;;4032186;29;20093;-63
2022/11/03 00:26:25;;;;;;;0.00;0.00;;;16.30;90.00;;;;;;4032952;29;20067;-63
2022/11/03 00:29:08;;;;;;;0.00;0.00;;;16.30;90.00;;;;;;4033064;29;20196;-63
2022/11/03 00:31:49;;;;;;;0.00;0.00;;;16.30;90.00;;;;;;4032452;29;20606;-63
2022/11/03 00:34:30;;;;;;;0.00;0.00;;;16.20;89.90;;;;;;4033287;29;20202;-63
2022/11/03 00:37:11;;;;;;;0.10;0.10;;;16.20;90.00;;;;;;4022033;29;20148;-63
2022/11/03 00:39:53;;;;;;;0.00;0.00;;;16.20;90.00;;;;;;4032867;29;20051;-63
2022/11/03 00:42:36;;;;;;;0.63;0.63;;;16.20;90.00;;;;;;4032074;29;20081;-63
2022/11/03 00:45:17;;;;;;;0.00;0.00;;;16.20;90.00;;;;;;4032707;29;20060;-63
2022/11/03 00:51:00;;;;;;;0.00;0.00;;;16.20;90.00;;;;;;4032288;29;20064;-63
2022/11/03 00:53:43;;;;;;;0.00;0.00;;;16.20;90.10;;;;;;4032666;29;20409;-63
2022/11/03 00:56:27;;;;;;;0.00;0.00;;;16.20;90.10;;;;;;4032809;29;20136;-63
2022/11/03 00:59:09;;;;;;;0.38;0.38;;;16.20;90.10;;;;;;4033256;29;20075;-63
2022/11/03 01:01:50;;;;;;;0.00;0.00;;;16.10;90.10;;;;;;4031567;29;20048;-63
2022/11/03 01:07:29;;;;;;;0.00;0.00;;;16.20;90.10;;;;;;4006147;29;20117;-63
2022/11/03 01:10:10;;;;;;;0.28;0.17;;;16.10;90.10;;;;;;4020438;29;20181;-64
2022/11/03 01:12:52;;;;;;;0.00;0.00;;;16.10;90.10;;;;;;4032971;29;20056;-63
2022/11/03 01:15:33;;;;;;;3.30;1.98;;;16.10;90.20;;;;;;4032460;29;20056;-63
2022/11/03 01:18:14;;;;;;;0.10;0.10;;;16.10;90.30;;;;;;4015931;29;20076;-63
2022/11/03 01:20:56;;;;;;;0.00;0.00;;;16.10;90.20;;;;;;4017327;29;20068;-63
2022/11/03 01:23:37;;;;;;;0.00;0.00;;;16.10;90.30;;;;;;4017209;29;20071;-63
2022/11/03 01:26:18;;;;;;;0.10;0.10;;;16.10;90.30;;;;;;4017100;29;20060;-63
2022/11/03 01:29:00;;;;;;;0.00;0.00;;;16.10;90.30;;;;;;4017136;29;20052;-63
2022/11/03 01:31:41;;;;;;;0.00;0.00;;;16.10;90.30;;;;;;4016834;29;20068;-63
2022/11/03 01:34:22;;;;;;;0.00;0.00;;;16.10;90.30;;;;;;4016625;29;20599;-64
2022/11/03 01:37:04;;;;;;;0.00;0.00;;;16.10;90.30;;;;;;4016878;29;20060;-64
2022/11/03 01:39:44;;;;;;;0.00;0.00;;;16.10;90.30;;;;;;4016265;29;20072;-63
2022/11/03 01:42:25;;;;;;;0.00;0.00;;;16.10;90.30;;;;;;4005838;29;20056;-63
2022/11/03 01:45:09;;;;;;;0.00;0.00;;;16.10;90.30;;;;;;4016906;29;20052;-63
2022/11/03 01:47:50;;;;;;;0.00;0.00;;;16.00;90.30;;;;;;4016969;29;20150;-63
2022/11/03 01:50:31;;;;;;;0.00;0.00;;;16.00;90.40;;;;;;4001770;29;20065;-63
2022/11/03 01:53:13;;;;;;;0.00;0.00;;;16.00;90.30;;;;;;4001873;29;20124;-63
2022/11/03 01:55:56;;;;;;;0.00;0.00;;;16.00;90.30;;;;;;4001436;29;20052;-63
2022/11/03 01:58:41;;;;;;;0.00;0.00;;;16.00;90.40;;;;;;4006440;29;20297;-63
2022/11/03 02:01:23;;;;;;;0.00;0.00;;;16.00;90.40;;;;;;4016632;29;20422;-63
2022/11/03 02:04:10;;;;;;;0.00;0.00;;;16.00;90.40;;;;;;4017013;29;20513;-63
2022/11/03 02:06:58;;;;;;;0.00;0.00;;;16.00;90.40;;;;;;4016547;29;20061;-63
2022/11/03 02:09:39;;;;;;;0.00;0.00;;;16.00;90.40;;;;;;4001647;29;20064;-63
2022/11/03 02:12:21;;;;;;;0.00;0.00;;;16.00;90.40;;;;;;4016949;29;20052;-63
2022/11/03 02:15:06;;;;;;;0.00;0.00;;;16.00;90.40;;;;;;4016830;29;20064;-63
2022/11/03 02:17:50;;;;;;;0.00;0.00;;;16.00;90.40;;;;;;4021419;29;20129;-63
2022/11/03 02:20:32;;;;;;;0.45;0.45;;;16.00;90.40;;;;;;4016386;29;20120;-63
2022/11/03 02:23:22;;;;;;;4.68;3.50;;;16.00;90.40;;;;;;4016423;29;20060;-63
2022/11/03 02:26:08;;;;;;;0.00;0.00;;;16.00;90.40;;;;;;4007595;29;20102;-63
2022/11/03 02:28:49;;;;;;;0.00;0.00;;;16.00;90.40;;;;;;4011765;29;20513;-63
2022/11/03 02:31:38;;;;;;;0.00;0.00;;;15.90;90.40;;;;;;4004802;29;20175;-63
2022/11/03 02:34:26;;;;;;;0.00;0.00;;;16.00;90.80;;;;;;4016450;29;20421;-64
2022/11/03 02:37:13;;;;;;;0.00;0.00;;;15.90;90.40;;;;;;4015841;29;20121;-63
2022/11/03 02:40:01;;;;;;;5.88;1.42;;;15.90;90.40;;;;;;4004558;29;20150;-63
2022/11/03 02:42:47;;;;;;;0.77;0.65;;;15.90;90.40;;;;;;4016481;29;20069;-63
2022/11/03 02:45:30;;;;;;;0.00;0.00;;;15.90;90.40;;;;;;4015825;29;20410;-60
2022/11/03 02:48:14;;;;;;;0.00;0.00;;;15.90;90.40;;;;;;4015329;29;20053;-62
2022/11/03 02:50:55;;;;;;;0.00;0.00;;;15.90;90.40;;;;;;4015610;29;20190;-61
2022/11/03 02:53:41;;;;;;;0.00;0.00;;;15.90;90.40;;;;;;4015820;29;20132;-61
2022/11/03 02:56:24;;;;;;;0.00;0.00;;;15.90;90.40;;;;;;4016234;29;20056;-62
2022/11/03 02:59:10;;;;;;;0.00;0.00;;;15.90;90.30;;;;;;4015767;29;20060;-62
2022/11/03 03:01:55;;;;;;;0.00;0.00;;;15.90;90.40;;;;;;4015922;29;20073;-62
2022/11/03 03:04:39;;;;;;;0.10;0.10;;;15.90;90.40;;;;;;4016172;29;20572;-62
2022/11/03 03:07:26;;;;;;;0.00;0.00;;;15.90;90.40;;;;;;4015377;29;20512;-62
2022/11/03 03:10:12;;;;;;;0.00;0.00;;;15.90;90.40;;;;;;4007917;29;20069;-62
2022/11/03 03:12:56;;;;;;;0.00;0.00;;;15.90;90.80;;;;;;4016067;29;20064;-62
2022/11/03 03:15:46;;;;;;;0.00;0.00;;;15.90;90.40;;;;;;4000478;29;20060;-62
2022/11/03 03:18:30;;;;;;;0.43;0.43;;;15.90;90.40;;;;;;4010326;29;20203;-62
2022/11/03 03:21:16;;;;;;;0.00;0.00;;;15.90;90.40;;;;;;4016212;29;20096;-62
2022/11/03 03:24:01;;;;;;;0.00;0.00;;;15.90;90.40;;;;;;4015996;29;20573;-62
2022/11/03 03:26:45;;;;;;;0.00;0.00;;;15.90;90.40;;;;;;4015795;29;20398;-62
2022/11/03 03:29:29;;;;;;;0.00;0.00;;;15.90;90.40;;;;;;4000791;29;20211;-62
2022/11/03 03:32:17;;;;;;;0.00;0.00;;;15.90;90.40;;;;;;4004617;29;20898;-63
2022/11/03 03:35:00;;;;;;;0.00;0.00;;;15.90;90.40;;;;;;4015578;29;20057;-63
2022/11/03 03:37:45;;;;;;;0.00;0.00;;;15.90;90.40;;;;;;4015189;29;20229;-62
2022/11/03 03:40:31;;;;;;;0.00;0.00;;;15.90;90.40;;;;;;4015663;29;20209;-62
2022/11/03 03:43:14;;;;;;;0.00;0.00;;;15.90;90.40;;;;;;4018490;29;20060;-62
2022/11/03 03:45:58;;;;;;;0.00;0.00;;;15.90;90.40;;;;;;4018480;29;20073;-62
2022/11/03 03:48:40;;;;;;;0.00;0.00;;;15.80;90.40;;;;;;4014034;29;20068;-62
2022/11/03 03:51:25;;;;;;;0.00;0.00;;;15.80;90.40;;;;;;4018679;29;20510;-62
2022/11/03 03:54:06;;;;;;;0.13;0.13;;;15.80;90.50;;;;;;4018566;29;20076;-62
2022/11/03 03:56:52;;;;;;;0.00;0.00;;;15.90;90.50;;;;;;4018428;29;20086;-62
2022/11/03 03:59:32;;;;;;;0.00;0.00;;;15.90;90.50;;;;;;4002974;29;20060;-63
2022/11/03 04:02:14;;;;;;;0.00;0.00;;;15.80;90.50;;;;;;4007319;29;20701;-62
2022/11/03 04:04:59;;;;;;;0.25;0.25;;;15.90;90.70;;;;;;4003321;29;20061;-62
2022/11/03 04:07:50;;;;;;;0.00;0.00;;;15.90;90.50;;;;;;4005260;29;20186;-62
2022/11/03 04:10:31;;;;;;;0.00;0.00;;;16.00;90.40;;;;;;4018206;29;20049;-62
2022/11/03 04:22:20;;;;;;;0.00;0.00;;;16.30;89.40;;;;;;4006487;29;20062;-62
2022/11/03 04:25:01;;;;;;;0.00;0.00;;;16.40;90.00;;;;;;4018914;29;20205;-62
2022/11/03 04:27:43;;;;;;;0.00;0.00;;;16.50;89.00;;;;;;4002577;29;20532;-62
2022/11/03 04:30:25;;;;;;;0.00;0.00;;;16.50;88.90;;;;;;4003110;29;20085;-62
2022/11/03 04:33:12;;;;;;;0.22;0.22;;;16.50;88.90;;;;;;4003269;29;20061;-62
2022/11/03 04:35:55;;;;;;;0.00;0.00;;;16.50;88.80;;;;;;4003144;29;20098;-63
2022/11/03 04:38:38;;;;;;;0.10;0.10;;;16.50;88.80;;;;;;4000589;29;20052;-62
2022/11/03 04:41:21;;;;;;;0.00;0.00;;;16.50;88.80;;;;;;4002864;29;20056;-63
2022/11/03 04:44:01;;;;;;;0.00;0.00;;;16.40;88.70;;;;;;4004219;29;20061;-62
2022/11/03 04:46:45;;;;;;;0.00;0.00;;;16.50;88.80;;;;;;4018194;29;20577;-62
2022/11/03 04:49:26;;;;;;;0.00;0.00;;;16.40;88.80;;;;;;4016928;29;20190;-62
2022/11/03 04:52:14;;;;;;;0.00;0.00;;;16.40;89.00;;;;;;4001957;29;20080;-62
2022/11/03 04:54:56;;;;;;;0.00;0.00;;;16.40;89.10;;;;;;4004572;29;20988;-62
2022/11/03 04:57:36;;;;;;;0.00;0.00;;;16.30;89.20;;;;;;4003042;29;20056;-62
2022/11/03 05:00:19;;;;;;;0.00;0.00;;;16.30;89.10;;;;;;3996646;29;20052;-62
2022/11/03 05:03:00;;;;;;;0.00;0.00;;;16.30;89.30;;;;;;4008167;29;20529;-62
2022/11/03 05:05:41;;;;;;;0.00;0.00;;;16.30;89.40;;;;;;4004614;29;20056;-62
2022/11/03 05:08:22;;;;;;;0.00;0.00;;;16.20;89.50;;;;;;4009577;29;20113;-62
2022/11/03 05:11:15;;;;;;;0.00;0.00;;;16.20;89.40;;;;;;4016429;29;20076;-62
2022/11/03 05:13:58;;;;;;;0.00;0.00;;;16.20;89.60;;;;;;4002379;29;20145;-63
2022/11/03 05:16:40;;;;;;;0.00;0.00;;;16.10;89.80;;;;;;4002653;29;20183;-63
2022/11/03 05:19:25;;;;;;;0.00;0.00;;;16.10;90.00;;;;;;4032505;29;20060;-62
2022/11/03 05:22:09;;;;;;;0.00;0.00;;;16.10;90.00;;;;;;4032621;29;20141;-62
2022/11/03 05:24:54;;;;;;;0.00;0.00;;;16.10;90.10;;;;;;4032718;29;20056;-62
2022/11/03 05:27:36;;;;;;;0.00;0.00;;;16.20;90.00;;;;;;4032469;29;20179;-63
2022/11/03 05:30:17;;;;;;;0.00;0.00;;;16.20;90.00;;;;;;4017742;29;20060;-62
2022/11/03 05:32:58;;;;;;;0.00;0.00;;;16.20;89.90;;;;;;4017307;29;20068;-61
2022/11/03 05:35:40;;;;;;;0.30;0.30;;;16.30;89.80;;;;;;4017252;29;20063;-62
2022/11/03 05:38:21;;;;;;;;;;;16.30;89.70;;;;;;4017802;29;20178;-62
2022/11/03 05:41:02;;;;;;;0.00;0.00;;;16.30;89.60;;;;;;4017530;29;19931;-62
2022/11/03 05:43:44;;;;;;;0.00;0.00;;;16.30;89.50;;;;;;4016996;29;20055;-62
2022/11/03 05:46:29;;;;;;;0.00;0.00;;;16.30;89.50;;;;;;4017199;29;20149;-62
2022/11/03 05:49:11;;;;;;;0.00;0.00;;;16.30;89.50;;;;;;4002237;29;20057;-62
2022/11/03 05:51:51;;;;;;;8.40;1.98;;;16.30;89.40;;;;;;4002024;29;20073;-62
2022/11/03 05:54:34;;;;;;;1.80;1.70;;;16.30;89.60;;;;;;4002195;29;20493;-62
2022/11/03 05:57:17;;;;;;;0.00;0.00;;;16.30;89.60;;;;;;4009881;29;20056;-62
2022/11/03 05:59:59;;;;;;;0.00;0.00;;;16.30;89.70;;;;;;4005101;29;20502;-63
2022/11/03 06:02:42;;;;;;;0.00;0.00;;;16.20;89.70;;;;;;4016822;29;20501;-63
2022/11/03 06:05:25;;;;;;;0.00;0.00;;;16.20;89.70;;;;;;4005023;29;20056;-62
2022/11/03 06:08:16;;;;;;;0.00;0.00;;;16.20;89.80;;;;;;4016434;29;20136;-62
2022/11/03 06:10:59;;;;;;;0.00;0.00;;;16.10;90.30;;;;;;4001650;29;20138;-62
2022/11/03 06:13:40;;;;;;;0.25;0.25;;;16.10;90.30;;;;;;4001219;29;20052;-62
2022/11/03 06:16:38;;;;;;;0.00;0.00;;;16.10;90.00;;;;;;4004577;29;20056;-64
2022/11/03 06:19:22;;;;;;;0.00;0.00;;;16.10;90.20;;;;;;4016811;29;20081;-61
2022/11/03 06:22:12;;;;;;;0.00;0.00;;;16.10;90.40;;;;;;4032474;29;20116;-61
2022/11/03 06:24:57;;;;;;;0.10;0.10;;;16.10;90.40;;;;;;4031764;29;20060;-61
2022/11/03 06:27:39;;;;;;;0.00;0.00;;;16.10;90.30;;;;;;4015545;29;20198;-60
2022/11/03 06:30:23;;;;;;;0.00;0.00;;;16.10;90.20;;;;;;4001622;29;20106;-61
2022/11/03 06:33:13;;;;;;;0.00;0.00;;;16.10;90.20;;;;;;4003010;29;20058;-60
2022/11/03 06:35:59;;;;;;;0.00;0.00;;;16.10;90.20;;;;;;4016670;29;20053;-61
2022/11/03 06:38:40;;;;;;;0.00;0.00;;;16.00;90.30;;;;;;4016582;29;20693;-61
2022/11/03 06:41:24;;;;;;;0.00;0.00;;;16.00;90.30;;;;;;4016746;29;20064;-61
2022/11/03 06:44:23;;;;;;;0.00;0.00;;;16.00;90.40;;;;;;4031035;29;20059;-61
2022/11/03 06:47:18;;;;;;;0.10;0.10;;;15.90;90.40;;;;;;4031087;29;20563;-61
2022/11/03 06:50:00;;;;;;;0.00;0.00;;;15.90;90.50;;;;;;4030742;29;20064;-61
2022/11/03 06:52:45;;;;;;;0.00;0.00;;;15.90;90.60;;;;;;4031263;29;20060;-61
2022/11/03 06:55:28;;;;;;;0.00;0.00;;;15.80;90.50;;;;;;4031461;29;20063;-61
2022/11/03 06:58:15;;;;;;;0.00;0.00;;;15.80;90.60;;;;;;4025850;29;20064;-61
2022/11/03 07:00:59;;;;;;;0.00;0.00;;;15.80;90.60;;;;;;4016331;29;20409;-61
2022/11/03 07:03:43;;;;;;;0.00;0.00;;;15.80;90.60;;;;;;4016495;29;20157;-61
2022/11/03 07:06:29;;;;;;;0.00;0.00;;;15.80;90.70;;;;;;4015869;29;20133;-61
2022/11/03 07:09:16;;;;;;;4.40;0.57;;;15.80;90.70;;;;;;4016494;29;20198;-61
2022/11/03 07:11:59;;;;;;;0.00;0.00;;;15.70;90.70;;;;;;4004731;29;20186;-61
2022/11/03 07:14:40;;;;;;;0.00;0.00;;;15.80;90.80;;;;;;4015962;29;20068;-62
2022/11/03 07:17:22;;;;;;;0.00;0.00;;;15.70;90.80;;;;;;4003579;29;20057;-61
2022/11/03 07:20:09;;;;;;;0.00;0.00;;;15.80;90.90;;;;;;4010399;29;20581;-61
2022/11/03 07:22:53;;;;;;;0.35;0.35;;;15.70;90.70;;;;;;4017450;29;20500;-61
2022/11/03 07:25:35;;;;;;;1.33;1.25;;;15.70;90.60;;;;;;4017316;29;20509;-60
2022/11/03 07:28:16;;;;;;;0.00;0.00;;;15.70;90.60;;;;;;4008456;29;20086;-61
2022/11/03 07:30:58;;;;;;;1.92;1.77;;;15.70;90.80;;;;;;4016750;29;20485;-61
2022/11/03 07:33:39;;;;;;;0.00;0.00;;;15.70;90.40;;;;;;4006438;29;20055;-61
2022/11/03 07:36:23;;;;;;;0.08;0.08;;;15.70;90.30;;;;;;4014737;29;20089;-61
2022/11/03 07:39:08;;;;;;;0.22;0.22;;;15.70;90.30;;;;;;4013391;29;20108;-61
2022/11/03 07:41:50;;;;;;;0.00;0.00;;;15.70;90.30;;;;;;4018444;29;20056;-61
2022/11/03 07:44:31;;;;;;;0.57;0.57;;;15.70;90.20;;;;;;4018288;29;20057;-61
2022/11/03 07:47:14;;;;;;;0.00;0.00;;;15.70;90.10;;;;;;4002669;29;20056;-61
2022/11/03 07:49:56;;;;;;;9.23;1.55;;;15.70;90.00;;;;;;4017556;29;20125;-61
2022/11/03 07:52:37;;;;;;;0.00;0.00;;;15.80;89.40;;;;;;4017879;29;20056;-61
2022/11/03 07:55:19;;;;;;;0.00;0.00;;;16.00;88.40;;;;;;4017838;29;20513;-61
2022/11/03 07:58:00;;;;;;;0.00;0.00;;;16.20;87.40;;;;;;4017340;29;20292;-61
2022/11/03 08:00:41;;;;;;;1.35;0.88;;;16.40;86.40;;;;;;4006615;29;20401;-61
2022/11/03 08:03:27;;;;;;;0.00;0.00;;;16.50;85.50;;;;;;4016695;29;20416;-62
2022/11/03 08:06:08;;;;;;;0.00;0.00;;;16.70;84.70;;;;;;4013507;29;20076;-61
2022/11/03 08:08:49;;;;;;;0.00;0.00;;;16.90;84.00;;;;;;4017359;29;20065;-61
2022/11/03 08:11:32;;;;;;;0.00;0.00;;;17.00;83.30;;;;;;4016992;29;20053;-61
2022/11/03 08:14:13;;;;;;;0.00;0.00;;;17.00;82.90;;;;;;4017058;29;20056;-61
2022/11/03 08:16:54;;;;;;;0.00;0.00;;;17.00;82.70;;;;;;4017059;29;20056;-61
2022/11/03 08:19:33;;;;;;;10.77;3.75;;;17.10;82.60;;;;;;4217997;27;20380;-61
2022/11/03 08:22:13;;;;;;;0.00;0.00;;;17.10;82.60;;;;;;4223402;27;20059;-61
2022/11/03 08:24:54;;;;;;;0.00;0.00;;;17.00;82.60;;;;;;4208717;28;20083;-61
2022/11/03 08:27:35;;;;;;;0.00;0.00;;;17.00;82.70;;;;;;4208075;27;20059;-62
2022/11/03 08:30:16;;;;;;;0.00;0.00;;;17.00;83.10;;;;;;4198572;27;20102;-62
2022/11/03 08:32:57;;;;;;;0.88;0.80;;;16.90;83.00;;;;;;4206130;27;20047;-62
2022/11/03 08:35:39;;;;;;;0.00;0.00;;;16.90;83.30;;;;;;4194144;27;20049;-63
2022/11/03 08:38:20;;;;;;;0.00;0.00;;;16.90;83.30;;;;;;4223003;27;20410;-62
2022/11/03 08:41:01;;;;;;;0.10;0.10;;;16.80;83.50;;;;;;4220972;27;20058;-62
2022/11/03 08:43:42;;;;;;;0.20;0.20;;;16.80;83.70;;;;;;4200100;28;20059;-62
2022/11/03 08:46:23;;;;;;;0.00;0.00;;;16.80;83.70;;;;;;4204892;27;20178;-63
2022/11/03 08:49:04;;;;;;;0.00;0.00;;;16.70;84.60;;;;;;4187754;28;20597;-63
2022/11/03 08:51:46;;;;;;;0.77;0.77;;;16.70;83.80;;;;;;4189327;28;20048;-63
2022/11/03 08:54:28;;;;;;;0.00;0.00;;;16.60;83.90;;;;;;4187663;28;20137;-63
2022/11/03 08:57:09;;;;;;;1.30;1.20;;;16.60;84.20;;;;;;4189164;27;20126;-63
2022/11/03 08:59:51;;;;;;;0.00;0.00;;;16.60;84.20;;;;;;4187527;28;20478;-63
2022/11/03 09:02:32;;;;;;;0.10;0.10;;;16.60;84.80;;;;;;4189430;27;20059;-63
2022/11/03 09:05:14;;;;;;;0.00;0.00;;;16.50;84.60;;;;;;4194110;27;20048;-63
2022/11/03 09:07:56;;;;;;;2.75;2.38;;;16.50;84.60;;;;;;4201561;27;20086;-63
2022/11/03 09:10:57;;;;;;;0.30;0.30;;;16.50;85.50;;;;;;4195314;27;20047;-62
2022/11/03 09:13:38;;;;;;;0.00;0.00;;;16.50;85.70;;;;;;4189510;28;20054;-63
2022/11/03 09:16:19;;;;;;;0.32;0.32;;;16.50;84.90;;;;;;4194509;27;20100;-63
2022/11/03 09:19:19;;;;;;;0.00;0.00;;;16.40;84.90;;;;;;4194608;27;20388;-63
2022/11/03 09:22:01;;;;;;;0.00;0.00;;;16.40;85.00;;;;;;4198430;27;20054;-63
2022/11/03 09:24:44;;;;;;;0.00;0.00;;;16.40;85.20;;;;;;4197876;27;20089;-63
2022/11/03 09:27:25;;;;;;;0.00;0.00;;;16.40;85.30;;;;;;4187776;27;20146;-63
2022/11/03 09:30:07;;;;;;;0.73;0.73;;;16.30;85.30;;;;;;4179697;28;20090;-63
2022/11/03 09:32:53;;;;;;;0.00;0.00;;;16.30;85.50;;;;;;4181841;28;20064;-63
2022/11/03 09:35:34;;;;;;;0.10;0.10;;;16.30;85.80;;;;;;4178727;28;20072;-63
2022/11/03 09:38:15;;;;;;;0.38;0.25;;;16.30;85.90;;;;;;4176283;28;20059;-63
2022/11/03 09:40:58;;;;;;;0.10;0.10;;;16.30;86.00;;;;;;4191444;28;20051;-62
2022/11/03 09:43:39;;;;;;;0.05;0.05;;;16.30;87.10;;;;;;4177520;28;20159;-63
2022/11/03 09:46:21;;;;;;;0.10;0.10;;;16.20;87.10;;;;;;4176953;28;20064;-63
2022/11/03 09:49:05;;;;;;;0.00;0.00;;;16.20;86.40;;;;;;4188589;28;20052;-63
2022/11/03 09:51:47;;;;;;;0.00;0.00;;;16.20;86.50;;;;;;4183842;28;20059;-63
2022/11/03 09:54:29;;;;;;;0.00;0.00;;;16.20;86.60;;;;;;4190676;28;20063;-62
2022/11/03 09:57:13;;;;;;;7.13;1.45;;;16.20;86.60;;;;;;4185958;28;20593;-62
2022/11/03 09:59:55;;;;;;;0.00;0.00;;;16.20;86.70;;;;;;4182918;28;20063;-62
2022/11/03 10:02:37;;;;;;;0.00;0.00;;;16.20;86.70;;;;;;4179848;28;20109;-63
2022/11/03 10:05:22;;;;;;;0.32;0.32;;;16.20;86.80;;;;;;4175978;28;20182;-63
2022/11/03 10:08:08;;;;;;;0.00;0.00;;;16.20;86.80;;;;;;4177157;28;20083;-62
2022/11/03 10:10:49;;;;;;;0.00;0.00;;;16.20;87.00;;;;;;4176417;28;20099;-63
2022/11/03 10:13:37;;;;;;;0.00;0.00;;;16.20;87.10;;;;;;4184398;28;20063;-63
2022/11/03 10:16:22;;;;;;;0.00;0.00;;;16.10;87.10;;;;;;4177158;28;20060;-63
2022/11/03 10:19:03;;;;;;;0.00;0.00;;;16.20;87.30;;;;;;4174627;28;20047;-63
2022/11/03 10:21:44;;;;;;;0.00;0.00;;;16.20;87.40;;;;;;4174842;28;20603;-63
2022/11/03 10:24:25;;;;;;;0.85;0.85;;;16.20;87.50;;;;;;4181222;28;20376;-64
2022/11/03 10:27:20;;;;;;;0.00;0.00;;;16.20;87.60;;;;;;4170720;28;20109;-63
2022/11/03 10:30:09;;;;;;;1.05;1.02;;;16.20;87.70;;;;;;4174962;28;20056;-62
2022/11/03 10:32:50;;;;;;;0.00;0.00;;;16.20;87.80;;;;;;4176758;28;20617;-63
2022/11/03 10:35:35;;;;;;;0.80;0.80;;;16.20;88.70;;;;;;4172199;28;20056;-63
2022/11/03 10:38:27;;;;;;;0.00;0.00;;;16.20;87.90;;;;;;4194112;28;20056;-62
2022/11/03 10:41:13;;;;;;;0.00;0.00;;;16.20;88.10;;;;;;4174182;28;20064;-63
2022/11/03 10:44:06;;;;;;;3.42;0.68;;;16.20;88.10;;;;;;4178707;28;20060;-63
2022/11/03 10:46:58;;;;;;;0.00;0.00;;;16.20;89.10;;;;;;4174437;28;20107;-64
2022/11/03 10:49:39;;;;;;;0.73;0.73;;;16.20;88.40;;;;;;4190320;28;20396;-63
2022/11/03 10:52:25;;;;;;;3.85;3.63;;;16.10;88.60;;;;;;4175933;28;20082;-63
2022/11/03 10:55:08;;;;;;;5.20;2.38;;;16.20;88.80;;;;;;4175813;28;20056;-63
2022/11/03 10:57:50;;;;;;;0.00;0.00;;;16.10;88.80;;;;;;4177251;27;20593;-63
2022/11/03 11:00:33;;;;;;;0.80;0.80;;;16.20;88.90;;;;;;4174863;28;20463;-63
2022/11/03 11:03:16;;;;;;;0.30;0.30;;;16.20;89.00;;;;;;4180453;28;20494;-63
2022/11/03 11:05:59;;;;;;;1.95;1.85;;;16.20;88.90;;;;;;4178341;27;20495;-63
2022/11/03 11:08:40;;;;;;;0.05;0.05;;;16.20;88.90;;;;;;4176669;28;20060;-63
2022/11/03 11:11:22;;;;;;;3.15;2.38;;;16.20;88.90;;;;;;4178271;28;20056;-62
2022/11/03 11:14:23;;;;;;;6.97;3.85;;;16.20;88.90;;;;;;4183206;28;20454;-63
2022/11/03 11:17:05;;;;;;;1.33;1.30;;;16.20;88.90;;;;;;4173174;28;20047;-64
2022/11/03 11:20:29;;;;;;;38.75;3.17;;;16.20;88.90;;;;;;4199065;28;20094;-63
2022/11/03 11:23:51;;;;;;;0.38;0.38;;;16.30;89.00;;;;;;4182075;28;20067;-63
2022/11/03 11:26:33;;;;;;;0.00;0.00;;;16.30;88.90;;;;;;4179938;28;20189;-62
2022/11/03 11:29:42;;;;;;;0.00;0.00;;;16.30;88.80;;;;;;4184119;28;20087;-63
2022/11/03 11:32:56;;;;;;;13.48;0.75;;;16.30;88.80;;;;;;4173033;28;20429;-63
2022/11/03 11:36:19;;;;;;;34.58;1.52;;;16.30;88.80;;;;;;4183628;28;20600;-63
2022/11/03 11:39:01;;;;;;;1.63;1.52;;;16.40;88.80;;;;;;4173401;28;20091;-64
2022/11/03 11:42:05;;;;;;;0.95;0.95;;;16.40;88.70;;;;;;4175179;28;20160;-63
2022/11/03 11:44:48;;;;;;;0.47;0.20;;;16.40;88.70;;;;;;4189516;28;20062;-63
2022/11/03 11:47:35;;;;;;;0.00;0.00;;;16.40;88.70;;;;;;4173715;28;20059;-63
2022/11/03 11:50:37;;;;;;;9.65;4.55;;;16.40;88.70;;;;;;4186468;28;20056;-63
2022/11/03 11:53:22;;;;;;;;;;;16.40;88.60;;;;;;4189339;28;20114;-63
2022/11/03 11:56:12;;;;;;;2.25;2.08;;;16.50;88.60;;;;;;4174580;28;20397;-63
2022/11/03 11:58:54;;;;;;;0.00;0.00;;;16.40;88.40;;;;;;4173711;28;20067;-63
2022/11/03 12:01:38;;;;;;;0.25;0.25;;;16.50;88.40;;;;;;4174096;28;20051;-63
2022/11/03 12:04:22;;;;;;;0.70;0.70;;;16.40;88.30;;;;;;4188271;28;20052;-64
2022/11/03 12:07:11;;;;;;;0.00;0.00;;;16.50;88.40;;;;;;4173721;28;20051;-63
2022/11/03 12:09:55;;;;;;;1.55;1.25;;;16.40;88.20;;;;;;4181570;28;20122;-63
2022/11/03 12:12:37;;;;;;;1.10;1.10;;;16.40;88.10;;;;;;4184823;28;20830;-62
2022/11/03 12:15:50;;;;;;;0.00;0.00;;;16.50;88.20;;;;;;4195666;28;20190;-63
2022/11/03 12:18:33;;;;;;;0.15;0.15;;;16.50;88.30;;;;;;4191899;28;20526;-62
2022/11/03 12:21:46;;;;;;;4.13;1.98;;;16.50;88.70;;;;;;4205600;28;20051;-62
2022/11/03 12:24:38;;;;;;;0.00;0.00;;;16.50;89.10;;;;;;4196327;28;20055;-61
2022/11/03 12:27:42;;;;;;;0.00;0.00;;;16.50;89.00;;;;;;4205323;28;20395;-62
2022/11/03 12:30:23;;;;;;;0.70;0.70;;;16.50;89.00;;;;;;4193189;28;20050;-62
2022/11/03 12:33:04;;;;;;;0.60;0.60;;;16.50;89.00;;;;;;4191262;28;20490;-62
2022/11/03 12:35:45;;;;;;;0.10;0.10;;;16.50;89.00;;;;;;4185877;28;20059;-62
2022/11/03 12:38:26;;;;;;;0.17;0.08;;;16.50;89.00;;;;;;4200157;27;20097;-62
2022/11/03 12:41:23;;;;;;;0.20;0.20;;;16.50;89.00;;;;;;4204726;27;20051;-60
2022/11/03 12:44:05;;;;;;;3.20;1.65;;;16.50;89.30;;;;;;4175277;28;20056;-63
2022/11/03 12:46:46;;;;;;;0.10;0.10;;;16.50;89.50;;;;;;4190646;28;20097;-62
2022/11/03 12:49:27;;;;;;;0.00;0.00;;;16.60;89.40;;;;;;4207382;27;20051;-63
2022/11/03 12:52:09;;;;;;;0.00;0.00;;;16.60;89.20;;;;;;4175574;28;20060;-63
2022/11/03 12:54:50;;;;;;;0.00;0.00;;;16.60;89.00;;;;;;4189803;27;20055;-62
2022/11/03 12:57:31;;;;;;;0.00;0.00;;;16.60;88.60;;;;;;4204921;28;20082;-63
2022/11/03 13:00:14;;;;;;;0.00;0.00;;;16.60;88.70;;;;;;4191060;28;20130;-63
2022/11/03 13:02:57;;;;;;;0.00;0.00;;;16.60;88.70;;;;;;4191273;28;20055;-63
2022/11/03 13:05:38;;;;;;;0.00;0.00;;;16.50;88.50;;;;;;4187675;28;20103;-63
2022/11/03 13:08:19;;;;;;;3.25;1.67;;;16.50;88.40;;;;;;4178474;28;20091;-62
2022/11/03 13:11:00;;;;;;;0.00;0.00;;;16.50;88.40;;;;;;4186431;28;20613;-62
2022/11/03 13:13:41;;;;;;;0.05;0.05;;;16.50;88.40;;;;;;4181829;28;20052;-62
2022/11/03 13:16:24;;;;;;;0.00;0.00;;;16.50;88.30;;;;;;4194587;28;20055;-63
2022/11/03 13:19:05;;;;;;;0.68;0.68;;;16.50;88.30;;;;;;4193123;28;20121;-63
2022/11/03 13:21:46;;;;;;;0.00;0.00;;;16.50;88.20;;;;;;4203907;27;20525;-62
2022/11/03 13:24:27;;;;;;;0.10;0.10;;;16.50;88.20;;;;;;4182557;28;20129;-63
2022/11/03 13:27:08;;;;;;;0.57;0.57;;;16.50;88.20;;;;;;4193841;28;20050;-62
2022/11/03 13:29:49;;;;;;;0.00;0.00;;;16.40;88.30;;;;;;4194570;28;20051;-62
2022/11/03 13:32:31;;;;;;;1.17;0.80;;;16.50;88.20;;;;;;4198931;28;20054;-63
2022/11/03 13:35:12;;;;;;;0.00;0.00;;;16.40;88.10;;;;;;4210834;28;20508;-63
2022/11/03 13:37:53;;;;;;;;;;;16.40;88.20;;;;;;4211711;28;20058;-62
2022/11/03 13:40:34;;;;;;;0.00;0.00;;;16.50;88.20;;;;;;4194190;28;19947;-62
2022/11/03 13:43:36;;;;;;;;;;;16.50;87.90;;;;;;4209404;28;20236;-63
2022/11/03 13:46:16;;;;;;;1.05;1.05;;;16.40;87.90;;;;;;4211163;28;19927;-62
2022/11/03 13:48:59;;;;;;;0.38;0.38;;;16.40;87.80;;;;;;4210141;28;20158;-63
2022/11/03 13:51:59;;;;;;;0.00;0.00;;;16.40;87.90;;;;;;4208788;28;20063;-62
2022/11/03 13:54:40;;;;;;;0.00;0.00;;;16.40;88.00;;;;;;4205958;28;20046;-62
2022/11/03 13:57:41;;;;;;;0.00;0.00;;;16.40;87.90;;;;;;4206316;28;20055;-62
2022/11/03 14:00:42;;;;;;;0.00;0.00;;;16.40;88.00;;;;;;4208817;28;20066;-63
2022/11/03 14:03:24;;;;;;;0.00;0.00;;;16.50;87.60;;;;;;4176901;28;20051;-63
2022/11/03 14:06:26;;;;;;;1.50;1.20;;;16.70;87.20;;;;;;4178959;28;20125;-63
2022/11/03 14:09:07;;;;;;;0.00;0.00;;;16.90;86.40;;;;;;4193980;28;20059;-63
2022/11/03 14:14:51;;;;;;;0.00;0.00;;;17.20;85.10;;;;;;4204148;28;20133;-63
2022/11/03 14:17:32;;;;;;;0.00;0.00;;;17.20;84.50;;;;;;4197199;28;20671;-63
2022/11/03 14:20:13;;;;;;;0.00;0.00;;;17.30;84.40;;;;;;4193549;28;20129;-63
2022/11/03 14:22:56;;;;;;;0.00;0.00;;;17.30;84.30;;;;;;4192527;28;20059;-62
2022/11/03 14:25:36;;;;;;;23.55;1.45;;;17.40;84.40;;;;;;4193349;28;20182;-62
2022/11/03 14:28:17;;;;;;;0.00;0.00;;;17.30;84.50;;;;;;4193100;28;20051;-62
2022/11/03 14:31:05;;;;;;;0.20;0.20;;;17.30;84.60;;;;;;4193902;28;20048;-62
2022/11/03 14:33:46;;;;;;;0.00;0.00;;;17.30;84.80;;;;;;4191279;28;20133;-63
2022/11/03 14:36:27;;;;;;;5.22;1.67;;;17.30;85.00;;;;;;4192828;28;20055;-63